Time;durP1;ratioP1;P1;durP2;ratioP2;P2;SDS_P1;SDS_P2;PMS_P1;PMS_P2;Temp;Humidity;BMP_temperature;BMP_pressure;BME280_temperature;BME280_humidity;BME280_pressure;Samples;Min_cycle;Max_cycle;Signal;HPM_P1;HPM_P2
2022/11/06 00:00:53;;;;;;;55.78;42.97;;;16.10;99.90;;;;;;4592963;19;20038;-36
2022/11/06 00:02:24;;;;;;;62.05;44.17;;;16.10;99.90;;;;;;4592854;19;20025;-37
2022/11/06 00:03:55;;;;;;;57.75;44.50;;;16.10;99.90;;;;;;4593593;19;20074;-33
2022/11/06 00:07:17;;;;;;;58.33;44.33;;;16.10;99.90;;;;;;4591830;19;20011;-34
2022/11/06 00:08:48;;;;;;;56.95;44.00;;;16.10;99.90;;;;;;4592409;19;20018;-38
2022/11/06 00:10:19;;;;;;;56.70;40.15;;;16.10;99.90;;;;;;4593202;19;20037;-37
2022/11/06 00:11:51;;;;;;;57.03;42.53;;;16.10;99.90;;;;;;4592081;19;20011;-34
2022/11/06 00:13:23;;;;;;;60.65;45.72;;;16.10;99.90;;;;;;4590995;19;20458;-34
2022/11/06 00:14:54;;;;;;;58.00;44.33;;;16.00;99.90;;;;;;4591285;19;20014;-38
2022/11/06 00:16:25;;;;;;;63.10;43.63;;;16.10;99.90;;;;;;4591782;19;20023;-38
2022/11/06 00:17:56;;;;;;;54.05;37.88;;;16.00;99.90;;;;;;4591999;19;20010;-33
2022/11/06 00:19:27;;;;;;;51.35;36.42;;;16.00;99.90;;;;;;4592928;19;20010;-34
2022/11/06 00:20:59;;;;;;;51.13;36.95;;;16.00;99.90;;;;;;4592637;19;20022;-33
2022/11/06 00:22:33;;;;;;;42.80;31.52;;;16.00;99.90;;;;;;4590894;19;20015;-41
2022/11/06 00:24:05;;;;;;;41.25;30.23;;;16.00;99.90;;;;;;4591878;19;20503;-33
2022/11/06 00:25:39;;;;;;;50.47;36.78;;;16.00;99.90;;;;;;4591436;19;20356;-36
2022/11/06 00:27:11;;;;;;;48.45;34.88;;;16.00;99.90;;;;;;4592252;19;20049;-34
2022/11/06 00:28:42;;;;;;;47.25;34.60;;;16.00;99.90;;;;;;4590944;19;20486;-36
2022/11/06 00:30:13;;;;;;;45.13;32.42;;;16.00;99.90;;;;;;4591280;19;20038;-32
2022/11/06 00:31:44;;;;;;;42.58;31.98;;;16.00;99.90;;;;;;4591818;19;20007;-35
2022/11/06 00:33:16;;;;;;;48.50;33.42;;;16.00;99.90;;;;;;4591367;19;20015;-36
2022/11/06 00:34:47;;;;;;;45.17;34.40;;;16.00;99.90;;;;;;4591806;19;20070;-34
2022/11/06 00:36:20;;;;;;;51.13;33.67;;;16.00;99.90;;;;;;4592037;19;20344;-32
2022/11/06 00:37:51;;;;;;;43.30;31.40;;;16.00;99.90;;;;;;4592488;19;19998;-37
2022/11/06 00:39:23;;;;;;;44.33;31.70;;;16.00;99.90;;;;;;4592194;19;20023;-36
2022/11/06 00:40:54;;;;;;;41.08;30.23;;;16.00;99.90;;;;;;4591994;19;20006;-36
2022/11/06 00:42:25;;;;;;;42.47;31.23;;;16.00;99.90;;;;;;4590780;19;20014;-36
2022/11/06 00:43:58;;;;;;;44.35;31.77;;;16.00;99.90;;;;;;4591501;19;20010;-35
2022/11/06 00:45:30;;;;;;;40.08;29.13;;;16.00;99.90;;;;;;4591866;19;20006;-38
2022/11/06 00:47:01;;;;;;;37.80;27.45;;;16.00;99.90;;;;;;4591692;19;20499;-35
2022/11/06 00:48:33;;;;;;;37.45;29.00;;;16.00;99.90;;;;;;4591933;19;20010;-34
2022/11/06 00:50:04;;;;;;;;;;;15.90;99.90;;;;;;4593226;19;20028;-38
2022/11/06 00:51:38;;;;;;;41.92;28.00;;;16.00;99.90;;;;;;4591617;19;19918;-37
2022/11/06 00:53:09;;;;;;;37.45;26.05;;;15.90;99.90;;;;;;4589496;19;20011;-32
2022/11/06 00:54:40;;;;;;;35.05;24.88;;;15.90;99.90;;;;;;4591663;19;20009;-35
2022/11/06 00:56:16;;;;;;;37.05;26.20;;;15.90;99.90;;;;;;4589417;19;20456;-33
2022/11/06 00:57:47;;;;;;;35.88;26.40;;;16.00;99.90;;;;;;4590620;19;20091;-37
2022/11/06 00:59:18;;;;;;;33.45;23.48;;;16.00;99.90;;;;;;4591545;19;20014;-35
2022/11/06 01:00:49;;;;;;;30.25;22.33;;;15.90;99.90;;;;;;4591726;19;20006;-36
2022/11/06 01:02:20;;;;;;;32.22;24.02;;;15.90;99.90;;;;;;4592461;19;20454;-40
2022/11/06 01:03:57;;;;;;;30.85;22.58;;;16.00;99.90;;;;;;4591286;19;20018;-33
2022/11/06 01:05:28;;;;;;;29.42;21.80;;;16.00;99.90;;;;;;4591543;19;20018;-37
2022/11/06 01:06:59;;;;;;;31.55;22.40;;;16.00;99.90;;;;;;4591612;19;20349;-32
2022/11/06 01:08:31;;;;;;;30.02;21.00;;;15.90;99.90;;;;;;4588901;19;20011;-36
2022/11/06 01:10:02;;;;;;;29.67;21.52;;;15.90;99.90;;;;;;4590497;19;20074;-38
2022/11/06 01:11:35;;;;;;;29.05;21.83;;;15.90;99.90;;;;;;4591416;19;20394;-33
2022/11/06 01:13:09;;;;;;;30.55;20.55;;;16.00;99.90;;;;;;4590622;19;20097;-38
2022/11/06 01:14:48;;;;;;;26.45;20.05;;;15.90;99.90;;;;;;4591174;19;20050;-41
2022/11/06 01:16:21;;;;;;;32.67;21.45;;;15.90;99.90;;;;;;4591399;19;20018;-36
2022/11/06 01:17:52;;;;;;;27.02;20.20;;;15.90;99.90;;;;;;4590081;19;20080;-38
2022/11/06 01:19:25;;;;;;;30.27;20.67;;;15.90;99.90;;;;;;4590723;19;20018;-34
2022/11/06 01:21:02;;;;;;;30.83;20.58;;;15.90;99.90;;;;;;4590961;19;20075;-32
2022/11/06 01:22:33;;;;;;;27.17;19.58;;;15.90;99.90;;;;;;4589848;19;20018;-40
2022/11/06 01:24:11;;;;;;;29.20;20.23;;;15.90;99.90;;;;;;4591068;19;20015;-32
2022/11/06 01:25:42;;;;;;;29.77;19.85;;;15.90;99.90;;;;;;4591450;19;20015;-36
2022/11/06 01:27:13;;;;;;;28.33;19.65;;;15.90;99.90;;;;;;4590876;19;20476;-34
2022/11/06 01:28:45;;;;;;;30.75;21.10;;;15.90;99.90;;;;;;4590953;19;20007;-38
2022/11/06 01:30:17;;;;;;;;;;;15.90;99.90;;;;;;4592153;19;20034;-33
2022/11/06 01:31:51;;;;;;;28.47;20.10;;;15.90;99.90;;;;;;4591597;19;19919;-37
2022/11/06 01:33:22;;;;;;;29.10;20.08;;;15.90;99.90;;;;;;4588585;19;20504;-37
2022/11/06 01:34:53;;;;;;;26.85;19.17;;;15.90;99.90;;;;;;4587984;19;20042;-36
2022/11/06 01:36:25;;;;;;;29.92;20.02;;;15.90;99.90;;;;;;4590597;19;20014;-39
2022/11/06 01:37:56;;;;;;;30.17;20.48;;;15.90;99.90;;;;;;4589799;19;20031;-34
2022/11/06 01:39:27;;;;;;;25.58;19.40;;;15.90;99.90;;;;;;4590253;19;20460;-36
2022/11/06 01:40:58;;;;;;;31.27;20.83;;;15.90;99.90;;;;;;4591141;19;20010;-36
2022/11/06 01:42:30;;;;;;;28.00;20.83;;;15.90;99.90;;;;;;4590877;19;20017;-36
2022/11/06 01:44:30;;;;;;;27.55;19.27;;;15.90;99.90;;;;;;4591594;19;20002;-33
2022/11/06 01:46:01;;;;;;;28.00;20.02;;;15.80;99.90;;;;;;4588781;19;20058;-37
2022/11/06 01:47:33;;;;;;;31.75;21.02;;;15.90;99.90;;;;;;4588288;19;20042;-32
2022/11/06 01:49:13;;;;;;;31.45;24.52;;;15.80;99.90;;;;;;4588084;19;20014;-32
2022/11/06 01:50:45;;;;;;;26.83;21.13;;;15.90;99.90;;;;;;4588114;19;20060;-34
2022/11/06 01:52:16;;;;;;;31.08;21.02;;;15.80;99.90;;;;;;4588365;19;20016;-33
2022/11/06 01:53:47;;;;;;;26.13;20.17;;;15.80;99.90;;;;;;4588250;19;20096;-38
2022/11/06 01:55:31;;;;;;;26.23;19.60;;;15.80;99.90;;;;;;4588624;19;20431;-34
2022/11/06 01:57:02;;;;;;;27.23;20.10;;;15.80;99.90;;;;;;4588031;19;20010;-37
2022/11/06 01:58:33;;;;;;;;;;;15.80;99.90;;;;;;4591186;19;20038;-33
2022/11/06 02:00:05;;;;;;;29.67;22.45;;;15.90;99.90;;;;;;4588274;19;19940;-31
2022/11/06 02:01:36;;;;;;;28.52;21.20;;;15.80;99.90;;;;;;4588382;19;20382;-34
2022/11/06 02:03:08;;;;;;;27.77;22.83;;;15.90;99.90;;;;;;4588701;19;20013;-37
2022/11/06 02:04:49;;;;;;;33.92;23.75;;;15.80;99.90;;;;;;4587936;19;20015;-36
2022/11/06 02:06:20;;;;;;;29.90;23.52;;;15.80;99.90;;;;;;4588008;19;20014;-31
2022/11/06 02:07:52;;;;;;;34.50;25.00;;;15.80;99.90;;;;;;4587633;19;20456;-34
2022/11/06 02:09:23;;;;;;;30.58;22.98;;;15.80;99.90;;;;;;4588549;19;20018;-35
2022/11/06 02:10:54;;;;;;;29.23;23.30;;;15.80;99.90;;;;;;4588078;19;20508;-37
2022/11/06 02:12:58;;;;;;;31.40;23.67;;;15.80;99.90;;;;;;4584913;19;20534;-34
2022/11/06 02:14:32;;;;;;;30.63;22.95;;;15.80;99.90;;;;;;4588108;19;20069;-34
2022/11/06 02:16:08;;;;;;;28.48;22.52;;;15.80;99.90;;;;;;4588136;19;20014;-33
2022/11/06 02:18:16;;;;;;;30.08;23.05;;;15.80;99.90;;;;;;4587981;19;20017;-33
2022/11/06 02:20:30;;;;;;;33.58;24.23;;;15.80;99.90;;;;;;4588317;19;20443;-33
2022/11/06 02:22:20;;;;;;;30.05;23.02;;;15.80;99.90;;;;;;4587667;19;20540;-38
2022/11/06 02:24:06;;;;;;;29.25;22.95;;;15.80;99.90;;;;;;4589328;19;20369;-30
2022/11/06 02:25:51;;;;;;;29.15;21.02;;;15.80;99.90;;;;;;4590529;19;20022;-34
2022/11/06 02:27:22;;;;;;;26.85;20.80;;;15.80;99.90;;;;;;4589885;19;20014;-34
2022/11/06 02:29:08;;;;;;;25.25;19.90;;;15.80;99.90;;;;;;4588867;19;20010;-35
2022/11/06 02:30:42;;;;;;;25.90;19.77;;;15.80;99.90;;;;;;4589169;19;20031;-32
2022/11/06 02:32:23;;;;;;;30.05;20.40;;;15.80;99.90;;;;;;4588585;19;20098;-34
2022/11/06 02:33:58;;;;;;;27.20;18.55;;;15.80;99.90;;;;;;4589519;19;20475;-33
2022/11/06 02:35:46;;;;;;;27.95;20.23;;;15.80;99.90;;;;;;4588050;19;20019;-33
2022/11/06 02:37:26;;;;;;;27.85;21.23;;;15.80;99.90;;;;;;4588569;19;20018;-37
2022/11/06 02:38:59;;;;;;;26.73;19.88;;;15.80;99.90;;;;;;4588775;19;20015;-39
2022/11/06 02:40:32;;;;;;;25.00;19.73;;;15.80;99.90;;;;;;4588901;19;20009;-39
2022/11/06 02:42:04;;;;;;;25.08;18.60;;;15.80;99.90;;;;;;4588478;19;20010;-35
2022/11/06 02:43:40;;;;;;;25.00;18.90;;;15.80;99.90;;;;;;4588654;19;20014;-37
2022/11/06 02:45:12;;;;;;;24.27;17.73;;;15.80;99.90;;;;;;4589277;19;20070;-34
2022/11/06 02:46:57;;;;;;;23.35;17.52;;;15.80;99.90;;;;;;4588596;19;20037;-39
2022/11/06 02:48:31;;;;;;;22.30;17.42;;;15.80;99.90;;;;;;4589112;19;20011;-38
2022/11/06 02:50:14;;;;;;;23.85;19.00;;;15.80;99.90;;;;;;4588301;19;20015;-35
2022/11/06 02:51:48;;;;;;;24.85;18.10;;;15.80;99.90;;;;;;4588544;19;20046;-37
2022/11/06 02:53:20;;;;;;;23.00;20.05;;;15.80;99.90;;;;;;4587671;19;20003;-38
2022/11/06 02:55:08;;;;;;;;;;;15.80;99.90;;;;;;4589743;19;20468;-39
2022/11/06 02:56:41;;;;;;;26.38;18.77;;;15.80;99.90;;;;;;4588341;19;20277;-31
2022/11/06 02:58:18;;;;;;;21.45;16.83;;;15.80;99.90;;;;;;4588138;19;20044;-34
2022/11/06 02:59:52;;;;;;;25.65;18.23;;;15.80;99.90;;;;;;4588495;19;20476;-36
2022/11/06 03:01:43;;;;;;;23.35;16.75;;;15.70;99.90;;;;;;4589216;19;20007;-36
2022/11/06 03:03:22;;;;;;;24.60;17.95;;;15.80;99.90;;;;;;4588398;19;20010;-34
2022/11/06 03:04:56;;;;;;;26.77;18.33;;;15.80;99.90;;;;;;4588042;19;20078;-35
2022/11/06 03:06:34;;;;;;;21.42;17.00;;;15.80;99.90;;;;;;4589166;19;20026;-37
2022/11/06 03:08:17;;;;;;;24.40;18.15;;;15.70;99.90;;;;;;4589548;19;20016;-36
2022/11/06 03:09:49;;;;;;;22.88;16.85;;;15.80;99.90;;;;;;4588906;19;20011;-31
2022/11/06 03:11:24;;;;;;;22.65;15.68;;;15.80;99.90;;;;;;4588100;19;20007;-34
2022/11/06 03:12:57;;;;;;;23.30;16.70;;;15.80;99.90;;;;;;4586673;19;20018;-36
2022/11/06 03:14:35;;;;;;;21.50;16.90;;;15.80;99.90;;;;;;4589080;19;20352;-36
2022/11/06 03:16:22;;;;;;;22.02;16.60;;;15.70;99.90;;;;;;4588964;19;20014;-33
2022/11/06 03:18:10;;;;;;;24.60;17.92;;;15.70;99.90;;;;;;4588553;19;20050;-33
2022/11/06 03:19:45;;;;;;;22.85;16.55;;;15.80;99.90;;;;;;4589479;19;20058;-34
2022/11/06 03:21:22;;;;;;;20.65;14.75;;;15.80;99.90;;;;;;4593097;19;20074;-33
2022/11/06 03:23:23;;;;;;;22.60;16.63;;;15.80;99.90;;;;;;4592806;19;20057;-38
2022/11/06 03:25:01;;;;;;;23.63;16.50;;;15.80;99.90;;;;;;4592492;19;20018;-39
2022/11/06 03:26:35;;;;;;;22.00;16.20;;;15.80;99.90;;;;;;4592381;19;20013;-38
2022/11/06 03:28:12;;;;;;;22.27;17.30;;;15.70;99.90;;;;;;4593229;19;19999;-36
2022/11/06 03:29:52;;;;;;;20.88;15.13;;;15.80;99.90;;;;;;4590928;19;20495;-39
2022/11/06 03:31:36;;;;;;;20.05;15.63;;;15.80;99.90;;;;;;4591552;19;20027;-33
2022/11/06 03:33:16;;;;;;;21.55;16.67;;;15.70;99.90;;;;;;4590630;19;20411;-33
2022/11/06 03:34:58;;;;;;;20.17;14.98;;;15.80;99.90;;;;;;4590961;19;20023;-33
2022/11/06 03:36:35;;;;;;;21.65;16.27;;;15.80;99.90;;;;;;4591095;19;20361;-34
2022/11/06 03:38:08;;;;;;;21.27;16.50;;;15.70;99.90;;;;;;4590926;19;20353;-38
2022/11/06 03:39:49;;;;;;;20.55;15.40;;;15.80;99.90;;;;;;4591158;19;20015;-32
2022/11/06 03:41:37;;;;;;;20.97;16.57;;;15.70;99.90;;;;;;4591775;19;20006;-35
2022/11/06 03:43:09;;;;;;;19.45;14.35;;;15.70;99.90;;;;;;4591627;19;20400;-42
2022/11/06 03:44:42;;;;;;;18.77;14.70;;;15.70;99.90;;;;;;4591056;19;20018;-37
2022/11/06 03:46:18;;;;;;;21.55;15.43;;;15.70;99.90;;;;;;4590990;19;20046;-34
2022/11/06 03:47:58;;;;;;;19.00;14.90;;;15.70;99.90;;;;;;4591169;19;20010;-35
2022/11/06 03:49:32;;;;;;;18.75;14.57;;;15.80;99.90;;;;;;4591032;19;20007;-36
2022/11/06 03:51:18;;;;;;;19.90;15.52;;;15.70;99.90;;;;;;4590742;19;20411;-33
2022/11/06 03:53:14;;;;;;;19.10;15.43;;;15.70;99.90;;;;;;4590099;19;20014;-33
2022/11/06 03:55:00;;;;;;;18.27;14.10;;;15.70;99.90;;;;;;4590213;19;20544;-31
2022/11/06 03:56:45;;;;;;;18.75;14.30;;;15.70;99.90;;;;;;4590705;19;20019;-36
2022/11/06 03:58:19;;;;;;;20.63;16.10;;;15.70;99.90;;;;;;4590383;19;20511;-31
2022/11/06 03:59:53;;;;;;;18.15;14.45;;;15.70;99.90;;;;;;4591011;19;20009;-35
2022/11/06 04:01:27;;;;;;;21.05;16.40;;;15.70;99.90;;;;;;4591105;19;20094;-32
2022/11/06 04:03:05;;;;;;;18.30;14.48;;;15.70;99.80;;;;;;4591662;19;20021;-34
2022/11/06 04:04:42;;;;;;;18.08;14.77;;;15.70;99.80;;;;;;4592022;19;20107;-33
2022/11/06 04:06:25;;;;;;;19.58;15.43;;;15.70;99.80;;;;;;4591880;19;20089;-36
2022/11/06 04:15:19;;;;;;;17.27;13.07;;;15.70;99.60;;;;;;4591600;19;20424;-33
2022/11/06 04:16:52;;;;;;;18.98;14.00;;;15.70;99.50;;;;;;4592866;19;20070;-37
2022/11/06 04:18:24;;;;;;;15.63;12.23;;;15.70;99.50;;;;;;4591801;19;20016;-37
2022/11/06 04:19:58;;;;;;;16.88;12.27;;;15.70;99.40;;;;;;4591994;19;20019;-39
2022/11/06 04:22:05;;;;;;;17.27;12.45;;;15.70;99.40;;;;;;4591267;19;20015;-40
2022/11/06 04:26:34;;;;;;;18.30;13.32;;;15.70;99.40;;;;;;4590585;19;20490;-35
2022/11/06 04:28:01;;;;;;;17.35;12.20;;;15.70;99.40;;;;;;4591218;19;20470;-37
2022/11/06 04:29:33;;;;;;;15.95;12.63;;;15.70;99.30;;;;;;4591632;19;20018;-31
2022/11/06 04:31:10;;;;;;;17.48;13.00;;;15.70;99.30;;;;;;4591981;19;20038;-33
2022/11/06 04:32:53;;;;;;;18.30;13.60;;;15.70;99.30;;;;;;4591345;19;20014;-41
2022/11/06 04:34:40;;;;;;;20.00;14.38;;;15.70;99.30;;;;;;4591688;19;20007;-39
2022/11/06 04:36:41;;;;;;;17.83;13.25;;;15.70;99.20;;;;;;4590874;19;20023;-38
2022/11/06 04:38:20;;;;;;;19.80;13.93;;;15.70;99.20;;;;;;4592377;19;20023;-34
2022/11/06 04:40:04;;;;;;;19.40;14.07;;;15.70;99.20;;;;;;4591438;19;20537;-35
2022/11/06 04:41:59;;;;;;;19.33;15.00;;;15.70;99.20;;;;;;4591600;19;20426;-33
2022/11/06 04:43:36;;;;;;;17.08;14.20;;;15.70;99.20;;;;;;4590814;19;20031;-35
2022/11/06 04:45:10;;;;;;;18.67;14.70;;;15.70;99.10;;;;;;4591608;19;20021;-31
2022/11/06 04:46:59;;;;;;;19.30;14.45;;;15.70;99.10;;;;;;4590791;19;20479;-33
2022/11/06 04:48:30;;;;;;;18.83;13.75;;;15.70;99.10;;;;;;4590624;19;20010;-31
2022/11/06 04:50:01;;;;;;;19.98;14.35;;;15.70;99.10;;;;;;4591116;19;20034;-33
2022/11/06 04:51:35;;;;;;;18.38;13.75;;;15.70;99.10;;;;;;4590772;19;20081;-34
2022/11/06 04:53:08;;;;;;;19.45;14.45;;;15.70;99.10;;;;;;4589651;19;20417;-35
2022/11/06 04:54:39;;;;;;;19.17;15.00;;;15.70;99.00;;;;;;4590700;19;20013;-33
2022/11/06 04:56:11;;;;;;;18.65;15.18;;;15.70;99.00;;;;;;4590594;19;20010;-33
2022/11/06 04:57:42;;;;;;;17.35;14.15;;;15.60;99.00;;;;;;4590658;19;20019;-36
2022/11/06 04:59:15;;;;;;;18.15;15.38;;;15.70;99.00;;;;;;4591247;19;20034;-32
2022/11/06 05:00:48;;;;;;;18.23;13.52;;;15.70;99.20;;;;;;4590731;19;20014;-35
2022/11/06 05:02:19;;;;;;;19.15;13.93;;;15.60;98.90;;;;;;4590571;19;20070;-36
2022/11/06 05:03:50;;;;;;;18.23;14.07;;;15.70;98.90;;;;;;4591219;19;20340;-36
2022/11/06 05:05:21;;;;;;;17.85;13.30;;;15.70;98.80;;;;;;4591902;19;20011;-31
2022/11/06 05:06:52;;;;;;;17.10;13.57;;;15.60;98.70;;;;;;4591705;19;20066;-34
2022/11/06 05:08:23;;;;;;;20.42;13.88;;;15.60;98.80;;;;;;4592103;19;20014;-33
2022/11/06 05:09:54;;;;;;;14.70;13.15;;;15.70;98.90;;;;;;4591233;19;20338;-36
2022/11/06 05:11:25;;;;;;;15.32;13.07;;;15.70;98.70;;;;;;4591326;19;20341;-32
2022/11/06 05:12:56;;;;;;;15.60;13.27;;;15.70;98.70;;;;;;4590182;19;20019;-35
2022/11/06 05:14:28;;;;;;;13.52;11.95;;;15.70;98.60;;;;;;4590474;19;20030;-32
2022/11/06 05:15:59;;;;;;;13.98;11.85;;;15.70;98.50;;;;;;4591048;19;20019;-35
2022/11/06 05:17:30;;;;;;;13.52;10.88;;;15.70;98.40;;;;;;4590537;19;20015;-34
2022/11/06 05:19:02;;;;;;;13.45;10.20;;;15.80;98.50;;;;;;4591298;19;20014;-32
2022/11/06 05:20:33;;;;;;;12.05;10.38;;;15.70;98.40;;;;;;4590135;19;20014;-34
2022/11/06 05:23:53;;;;;;;12.57;10.32;;;15.70;98.20;;;;;;4591107;19;20011;-31
2022/11/06 05:25:33;;;;;;;13.88;10.80;;;15.80;98.10;;;;;;4590285;19;20010;-31
2022/11/06 05:27:07;;;;;;;14.07;10.70;;;15.80;98.10;;;;;;4588485;19;20037;-38
2022/11/06 05:28:46;;;;;;;12.48;10.18;;;15.90;98.20;;;;;;4585079;19;20491;-35
2022/11/06 05:30:31;;;;;;;11.02;9.65;;;15.90;98.00;;;;;;4588887;19;20027;-34
2022/11/06 05:32:50;;;;;;;11.10;9.52;;;15.80;98.00;;;;;;4588461;19;20014;-36
2022/11/06 05:34:25;;;;;;;11.98;9.55;;;15.80;97.90;;;;;;4591601;19;20010;-35
2022/11/06 05:36:12;;;;;;;11.13;9.57;;;15.80;97.90;;;;;;4588706;19;20488;-35
2022/11/06 05:37:59;;;;;;;12.88;10.05;;;15.80;97.90;;;;;;4589554;19;20018;-38
2022/11/06 05:39:32;;;;;;;11.65;9.38;;;15.80;97.90;;;;;;4591312;19;20031;-43
2022/11/06 05:41:05;;;;;;;11.38;9.32;;;15.70;97.80;;;;;;4590270;19;20479;-37
2022/11/06 05:42:41;;;;;;;9.82;8.15;;;15.80;97.90;;;;;;4589978;19;20085;-35
2022/11/06 05:44:12;;;;;;;10.68;9.30;;;15.70;97.90;;;;;;4589091;19;20015;-34
2022/11/06 05:45:43;;;;;;;12.40;10.23;;;15.80;97.90;;;;;;4591350;19;20007;-36
2022/11/06 05:47:15;;;;;;;10.65;9.43;;;15.80;97.90;;;;;;4590105;19;20073;-35
2022/11/06 05:48:47;;;;;;;11.52;9.32;;;15.70;97.80;;;;;;4590481;19;20023;-35
2022/11/06 05:50:19;;;;;;;13.05;10.18;;;15.70;97.80;;;;;;4589577;19;20010;-35
2022/11/06 05:51:51;;;;;;;11.55;9.57;;;15.70;97.80;;;;;;4591076;19;20359;-40
2022/11/06 05:53:22;;;;;;;11.82;10.45;;;15.80;97.80;;;;;;4589490;19;20353;-34
2022/11/06 05:54:53;;;;;;;12.50;10.20;;;15.70;97.80;;;;;;4590290;19;20365;-35
2022/11/06 05:56:25;;;;;;;11.82;10.35;;;15.80;97.80;;;;;;4590958;19;20066;-38
2022/11/06 05:57:56;;;;;;;13.10;10.80;;;14.10;98.40;;;;;;4589911;19;20026;-34
2022/11/06 05:59:28;;;;;;;;;;;12.40;99.90;;;;;;4591773;19;20508;-37
2022/11/06 06:01:00;;;;;;;15.18;11.50;;;11.60;99.90;;;;;;4589921;19;20252;-36
2022/11/06 06:02:32;;;;;;;13.43;10.93;;;11.20;99.90;;;;;;4590446;19;20022;-39
2022/11/06 06:04:05;;;;;;;12.57;10.93;;;11.00;99.90;;;;;;4591220;19;20340;-37
2022/11/06 06:05:37;;;;;;;14.30;11.83;;;10.80;99.90;;;;;;4589342;19;20581;-38
2022/11/06 06:07:10;;;;;;;14.63;11.90;;;10.70;99.90;;;;;;4591213;19;20476;-36
2022/11/06 06:08:42;;;;;;;13.37;10.33;;;10.60;99.90;;;;;;4590598;19;21074;-33
2022/11/06 06:10:15;;;;;;;14.37;11.53;;;10.60;99.90;;;;;;4590760;19;20509;-35
2022/11/06 06:11:51;;;;;;;14.63;10.33;;;10.50;99.90;;;;;;4589756;19;20477;-41
2022/11/06 06:13:23;;;;;;;13.43;10.27;;;10.40;99.90;;;;;;4586711;19;20483;-39
2022/11/06 06:14:55;;;;;;;16.05;11.85;;;10.40;99.90;;;;;;4590838;19;20452;-37
2022/11/06 06:16:27;;;;;;;13.27;10.77;;;10.40;99.90;;;;;;4589732;19;20041;-34
2022/11/06 06:18:00;;;;;;;15.87;12.17;;;10.40;99.90;;;;;;4590722;19;20606;-37
2022/11/06 06:19:31;;;;;;;14.98;11.57;;;10.30;99.90;;;;;;4589936;19;21223;-36
2022/11/06 06:21:02;;;;;;;14.00;11.05;;;10.30;99.90;;;;;;4591217;19;20015;-35
2022/11/06 06:22:33;;;;;;;12.77;10.18;;;10.20;99.90;;;;;;4590029;19;20517;-37
2022/11/06 06:24:05;;;;;;;12.55;10.30;;;10.20;99.90;;;;;;4588936;19;20344;-38
2022/11/06 06:25:36;;;;;;;;;;;10.20;99.90;;;;;;4592112;19;20030;-36
2022/11/06 06:27:07;;;;;;;14.47;11.30;;;10.20;99.90;;;;;;4590109;19;19923;-42
2022/11/06 06:28:38;;;;;;;13.90;11.02;;;10.10;99.90;;;;;;4588586;19;20022;-37
2022/11/06 06:30:10;;;;;;;14.45;10.32;;;10.10;99.90;;;;;;4590222;19;20033;-39
2022/11/06 06:31:41;;;;;;;;;;;10.10;99.90;;;;;;4590544;19;20077;-38
2022/11/06 06:33:12;;;;;;;14.80;11.47;;;10.10;99.90;;;;;;4589528;19;20258;-31
2022/11/06 06:34:43;;;;;;;15.35;11.48;;;10.10;99.90;;;;;;4589414;19;20367;-33
2022/11/06 06:36:14;;;;;;;14.43;11.68;;;10.10;99.90;;;;;;4587887;19;20024;-38
2022/11/06 06:37:52;;;;;;;13.93;11.25;;;10.00;99.90;;;;;;4589661;19;20018;-39
2022/11/06 06:39:23;;;;;;;12.60;10.43;;;10.00;99.90;;;;;;4587979;19;20515;-34
2022/11/06 06:40:59;;;;;;;;;;;10.00;99.90;;;;;;4590736;19;20489;-37
2022/11/06 06:42:30;;;;;;;15.33;11.17;;;10.00;99.90;;;;;;4589343;19;19927;-37
2022/11/06 06:44:01;;;;;;;13.65;11.02;;;10.00;99.90;;;;;;4589067;19;20441;-37
2022/11/06 06:45:32;;;;;;;13.38;10.63;;;10.00;99.90;;;;;;4590135;19;20024;-39
2022/11/06 06:47:03;;;;;;;15.98;12.00;;;10.00;99.90;;;;;;4588989;19;20010;-41
2022/11/06 06:48:35;;;;;;;14.38;11.65;;;9.90;99.90;;;;;;4589371;19;20018;-36
2022/11/06 06:50:06;;;;;;;15.75;11.57;;;10.00;99.90;;;;;;4589561;19;20021;-32
2022/11/06 06:51:38;;;;;;;13.90;11.77;;;10.00;99.90;;;;;;4590061;19;20360;-41
2022/11/06 06:53:09;;;;;;;13.82;11.15;;;9.90;99.90;;;;;;4588495;19;20511;-41
2022/11/06 06:54:41;;;;;;;14.55;11.68;;;10.00;99.90;;;;;;4590963;19;20010;-35
2022/11/06 06:56:12;;;;;;;13.80;11.57;;;9.90;99.90;;;;;;4590938;19;20011;-37
2022/11/06 06:57:43;;;;;;;15.65;12.05;;;9.90;99.90;;;;;;4593036;19;20026;-34
2022/11/06 06:59:14;;;;;;;15.95;11.55;;;9.90;99.90;;;;;;4593641;19;20019;-41
2022/11/06 07:00:55;;;;;;;;;;;9.90;99.90;;;;;;4592179;19;20022;-42
2022/11/06 07:02:32;;;;;;;15.37;13.73;;;10.00;99.90;;;;;;4593846;19;19919;-40
2022/11/06 07:04:08;;;;;;;15.23;12.55;;;10.00;99.90;;;;;;4593247;19;21106;-38
2022/11/06 07:05:53;;;;;;;15.80;13.43;;;9.90;99.90;;;;;;4593219;19;20022;-34
2022/11/06 07:07:25;;;;;;;17.55;12.48;;;9.90;99.90;;;;;;4593324;19;20453;-38
2022/11/06 07:08:58;;;;;;;14.63;12.03;;;9.90;99.90;;;;;;4593556;19;20007;-41
2022/11/06 07:10:37;;;;;;;13.80;11.70;;;9.90;99.90;;;;;;4592459;19;20594;-40
2022/11/06 07:12:19;;;;;;;14.20;11.53;;;9.90;99.90;;;;;;4592862;19;20526;-43
2022/11/06 07:13:59;;;;;;;17.07;12.37;;;9.90;99.90;;;;;;4592189;19;20436;-36
2022/11/06 07:15:47;;;;;;;15.80;12.23;;;9.90;99.90;;;;;;4593414;19;20494;-36
2022/11/06 07:17:58;;;;;;;14.83;12.63;;;10.00;99.90;;;;;;4592353;19;20457;-32
2022/11/06 07:19:59;;;;;;;17.50;12.93;;;10.00;99.90;;;;;;4594101;19;20480;-37
2022/11/06 07:21:33;;;;;;;14.23;12.17;;;10.00;99.90;;;;;;4594572;19;20488;-32
2022/11/06 07:23:25;;;;;;;14.70;11.93;;;10.00;99.90;;;;;;4593187;19;20468;-41
2022/11/06 07:25:11;;;;;;;15.35;12.73;;;10.00;99.90;;;;;;4592114;19;20461;-35
2022/11/06 07:26:44;;;;;;;16.97;13.13;;;10.00;99.90;;;;;;4593608;19;20018;-39
2022/11/06 07:28:16;;;;;;;15.77;13.07;;;10.00;99.90;;;;;;4592889;19;20824;-40
2022/11/06 07:29:48;;;;;;;17.53;13.23;;;10.00;99.90;;;;;;4590950;19;20529;-36
2022/11/06 07:31:20;;;;;;;18.85;13.65;;;10.10;99.90;;;;;;4592954;19;20552;-37
2022/11/06 07:32:51;;;;;;;16.65;13.65;;;10.10;99.90;;;;;;4591845;19;20029;-43
2022/11/06 07:34:23;;;;;;;18.27;15.45;;;10.10;99.90;;;;;;4594252;19;20011;-39
2022/11/06 07:35:54;;;;;;;19.58;16.58;;;10.10;99.90;;;;;;4592075;19;20364;-39
2022/11/06 07:37:26;;;;;;;21.45;17.25;;;10.10;99.90;;;;;;4593667;19;20038;-38
2022/11/06 07:38:58;;;;;;;48.50;33.67;;;10.10;99.90;;;;;;4591268;19;20014;-40
2022/11/06 07:40:29;;;;;;;36.45;27.55;;;10.20;99.90;;;;;;4592520;19;20445;-40
2022/11/06 07:42:02;;;;;;;34.67;25.75;;;10.20;99.90;;;;;;4593136;19;20022;-34
2022/11/06 07:43:34;;;;;;;30.23;24.03;;;10.20;99.90;;;;;;4592122;19;20684;-39
2022/11/06 07:45:06;;;;;;;27.15;20.70;;;10.30;99.90;;;;;;4592723;19;20449;-37
2022/11/06 07:46:39;;;;;;;;;;;10.30;99.90;;;;;;4593041;19;20361;-36
2022/11/06 07:48:12;;;;;;;29.97;23.33;;;10.30;99.90;;;;;;4592110;19;19974;-36
2022/11/06 07:49:46;;;;;;;27.25;21.05;;;10.30;99.90;;;;;;4591871;19;20519;-41
2022/11/06 07:51:25;;;;;;;27.87;20.60;;;10.40;99.90;;;;;;4593240;19;20041;-35
2022/11/06 07:53:22;;;;;;;29.77;20.60;;;11.20;99.90;;;;;;4591932;19;20433;-36
2022/11/06 07:54:58;;;;;;;24.10;18.77;;;12.10;99.90;;;;;;4593084;19;20449;-33
2022/11/06 07:56:30;;;;;;;24.47;18.73;;;12.60;99.90;;;;;;4592088;19;20465;-35
2022/11/06 07:58:05;;;;;;;26.43;18.53;;;12.90;99.90;;;;;;4592158;19;20480;-37
2022/11/06 07:59:38;;;;;;;22.27;18.97;;;13.20;99.90;;;;;;4592414;19;20457;-38
2022/11/06 08:04:04;;;;;;;24.47;19.10;;;13.60;99.90;;;;;;4589966;19;20479;-33
2022/11/06 08:05:40;;;;;;;25.17;20.13;;;13.80;99.90;;;;;;4589355;19;21118;-36
2022/11/06 08:07:19;;;;;;;25.40;18.50;;;13.90;99.90;;;;;;4589451;19;20542;-31
2022/11/06 08:09:06;;;;;;;20.83;16.83;;;14.00;99.90;;;;;;4589129;19;20021;-37
2022/11/06 08:11:18;;;;;;;;;;;;;;;;;;;;;
2022/11/06 08:13:19;;;;;;;23.17;17.60;;;14.30;99.90;;;;;;4588751;19;20011;-37
2022/11/06 08:15:26;;;;;;;24.40;18.20;;;14.30;99.90;;;;;;4590100;19;20039;-36
2022/11/06 08:17:11;;;;;;;22.30;16.13;;;14.40;99.90;;;;;;4588922;19;20036;-36
2022/11/06 08:19:02;;;;;;;21.77;16.13;;;14.50;99.90;;;;;;4591063;19;20056;-37
2022/11/06 08:20:45;;;;;;;20.87;15.03;;;14.50;99.90;;;;;;4588816;19;20103;-34
2022/11/06 08:22:16;;;;;;;20.50;15.50;;;14.60;99.90;;;;;;4588746;19;20014;-34
2022/11/06 08:24:03;;;;;;;19.48;13.13;;;14.60;99.90;;;;;;4590712;19;20469;-34
2022/11/06 08:25:43;;;;;;;18.93;13.73;;;14.70;99.90;;;;;;4590025;19;20040;-41
2022/11/06 08:27:22;;;;;;;20.23;14.27;;;14.70;99.90;;;;;;4590189;19;20495;-37
2022/11/06 08:28:53;;;;;;;19.10;13.75;;;14.70;99.90;;;;;;4589136;19;20295;-33